sensor_id;sensor_type;location;lat;lon;timestamp;temperature;humidity
51950;DHT22;37974;53.218;6.640;2023-04-09T00:01:22;8.50;99.90
51950;DHT22;37974;53.218;6.640;2023-04-09T00:03:48;8.50;99.90
51950;DHT22;37974;53.218;6.640;2023-04-09T00:06:13;8.60;99.90
51950;DHT22;37974;53.218;6.640;2023-04-09T00:08:39;8.80;99.90
51950;DHT22;37974;53.218;6.640;2023-04-09T00:11:05;8.50;99.90
51950;DHT22;37974;53.218;6.640;2023-04-09T00:13:31;8.60;99.90
51950;DHT22;37974;53.218;6.640;2023-04-09T00:15:56;8.80;99.90
51950;DHT22;37974;53.218;6.640;2023-04-09T00:18:22;8.50;99.90
51950;DHT22;37974;53.218;6.640;2023-04-09T00:20:48;8.40;99.90
51950;DHT22;37974;53.218;6.640;2023-04-09T00:23:13;8.40;99.90
51950;DHT22;37974;53.218;6.640;2023-04-09T00:25:39;8.40;99.90
51950;DHT22;37974;53.218;6.640;2023-04-09T00:28:05;8.40;99.90
51950;DHT22;37974;53.218;6.640;2023-04-09T00:30:31;8.40;99.90
51950;DHT22;37974;53.218;6.640;2023-04-09T00:32:57;8.40;99.90
51950;DHT22;37974;53.218;6.640;2023-04-09T00:35:23;8.40;99.90
51950;DHT22;37974;53.218;6.640;2023-04-09T00:37:48;8.40;99.90
51950;DHT22;37974;53.218;6.640;2023-04-09T00:40:14;8.40;99.90
51950;DHT22;37974;53.218;6.640;2023-04-09T00:42:40;8.40;99.90
51950;DHT22;37974;53.218;6.640;2023-04-09T00:45:07;8.40;99.90
51950;DHT22;37974;53.218;6.640;2023-04-09T00:47:33;8.40;99.90
51950;DHT22;37974;53.218;6.640;2023-04-09T00:50:00;8.50;99.90
51950;DHT22;37974;53.218;6.640;2023-04-09T00:52:26;8.40;99.90
51950;DHT22;37974;53.218;6.640;2023-04-09T00:54:55;8.30;99.90
51950;DHT22;37974;53.218;6.640;2023-04-09T00:57:23;8.40;99.90
51950;DHT22;37974;53.218;6.640;2023-04-09T00:59:49;8.30;99.90
51950;DHT22;37974;53.218;6.640;2023-04-09T01:02:15;8.70;99.90
51950;DHT22;37974;53.218;6.640;2023-04-09T01:04:41;8.30;99.90
51950;DHT22;37974;53.218;6.640;2023-04-09T01:07:15;8.30;99.90
51950;DHT22;37974;53.218;6.640;2023-04-09T01:09:56;8.30;99.90
51950;DHT22;37974;53.218;6.640;2023-04-09T01:12:42;8.30;99.90
51950;DHT22;37974;53.218;6.640;2023-04-09T01:15:16;8.30;99.90
51950;DHT22;37974;53.218;6.640;2023-04-09T01:17:53;8.30;99.90
51950;DHT22;37974;53.218;6.640;2023-04-09T01:20:29;8.30;99.90
51950;DHT22;37974;53.218;6.640;2023-04-09T01:23:15;8.30;99.90
51950;DHT22;37974;53.218;6.640;2023-04-09T01:25:52;8.30;99.90
51950;DHT22;37974;53.218;6.640;2023-04-09T01:30:48;8.30;99.90
51950;DHT22;37974;53.218;6.640;2023-04-09T01:33:15;8.30;99.90
51950;DHT22;37974;53.218;6.640;2023-04-09T01:35:43;8.30;99.90
51950;DHT22;37974;53.218;6.640;2023-04-09T01:38:11;8.30;99.90
51950;DHT22;37974;53.218;6.640;2023-04-09T01:40:38;8.20;99.90
51950;DHT22;37974;53.218;6.640;2023-04-09T01:43:05;8.20;99.90
51950;DHT22;37974;53.218;6.640;2023-04-09T01:45:33;8.20;99.90
51950;DHT22;37974;53.218;6.640;2023-04-09T01:47:59;8.30;99.90
51950;DHT22;37974;53.218;6.640;2023-04-09T01:50:26;8.20;99.90
51950;DHT22;37974;53.218;6.640;2023-04-09T01:52:52;8.20;99.90
51950;DHT22;37974;53.218;6.640;2023-04-09T01:55:17;8.20;99.90
51950;DHT22;37974;53.218;6.640;2023-04-09T01:57:43;8.20;99.90
51950;DHT22;37974;53.218;6.640;2023-04-09T02:00:09;8.20;99.90
51950;DHT22;37974;53.218;6.640;2023-04-09T02:02:41;8.20;99.90
51950;DHT22;37974;53.218;6.640;2023-04-09T02:05:11;8.30;99.90
51950;DHT22;37974;53.218;6.640;2023-04-09T02:07:44;8.20;99.90
51950;DHT22;37974;53.218;6.640;2023-04-09T02:10:12;8.20;99.90
51950;DHT22;37974;53.218;6.640;2023-04-09T02:12:44;8.20;99.90
51950;DHT22;37974;53.218;6.640;2023-04-09T02:15:13;8.20;99.90
51950;DHT22;37974;53.218;6.640;2023-04-09T02:17:39;8.20;99.90
51950;DHT22;37974;53.218;6.640;2023-04-09T02:20:05;8.20;99.90
51950;DHT22;37974;53.218;6.640;2023-04-09T02:22:32;8.20;99.90
51950;DHT22;37974;53.218;6.640;2023-04-09T02:24:57;8.20;99.90
51950;DHT22;37974;53.218;6.640;2023-04-09T02:27:23;8.50;99.90
51950;DHT22;37974;53.218;6.640;2023-04-09T02:29:49;8.20;99.90
51950;DHT22;37974;53.218;6.640;2023-04-09T02:32:15;8.30;99.90
51950;DHT22;37974;53.218;6.640;2023-04-09T02:34:41;8.10;99.90
51950;DHT22;37974;53.218;6.640;2023-04-09T02:37:06;8.10;99.90
51950;DHT22;37974;53.218;6.640;2023-04-09T02:39:32;8.10;99.90
51950;DHT22;37974;53.218;6.640;2023-04-09T02:41:58;8.10;99.90
51950;DHT22;37974;53.218;6.640;2023-04-09T02:44:24;8.10;99.90
51950;DHT22;37974;53.218;6.640;2023-04-09T02:46:50;8.10;99.90
51950;DHT22;37974;53.218;6.640;2023-04-09T02:49:17;8.10;99.90
51950;DHT22;37974;53.218;6.640;2023-04-09T02:51:42;8.30;99.90
51950;DHT22;37974;53.218;6.640;2023-04-09T02:54:08;8.10;99.90
51950;DHT22;37974;53.218;6.640;2023-04-09T02:56:34;8.00;99.90
51950;DHT22;37974;53.218;6.640;2023-04-09T02:58:59;8.10;99.90
51950;DHT22;37974;53.218;6.640;2023-04-09T03:01:25;8.10;99.90
51950;DHT22;37974;53.218;6.640;2023-04-09T03:03:51;8.10;99.90
51950;DHT22;37974;53.218;6.640;2023-04-09T03:06:16;8.10;99.90
51950;DHT22;37974;53.218;6.640;2023-04-09T03:08:43;8.00;99.90
51950;DHT22;37974;53.218;6.640;2023-04-09T03:11:08;8.00;99.90
51950;DHT22;37974;53.218;6.640;2023-04-09T03:13:34;8.00;99.90
51950;DHT22;37974;53.218;6.640;2023-04-09T03:16:00;8.00;99.90
51950;DHT22;37974;53.218;6.640;2023-04-09T03:18:25;8.20;99.90
51950;DHT22;37974;53.218;6.640;2023-04-09T03:20:51;8.10;99.90
51950;DHT22;37974;53.218;6.640;2023-04-09T03:23:16;8.00;99.90
51950;DHT22;37974;53.218;6.640;2023-04-09T03:25:42;7.90;99.90
51950;DHT22;37974;53.218;6.640;2023-04-09T03:28:08;7.90;99.90
51950;DHT22;37974;53.218;6.640;2023-04-09T03:30:33;7.90;99.90
51950;DHT22;37974;53.218;6.640;2023-04-09T03:32:59;8.10;99.90
51950;DHT22;37974;53.218;6.640;2023-04-09T03:35:25;7.80;99.90
51950;DHT22;37974;53.218;6.640;2023-04-09T03:37:51;7.80;99.90
51950;DHT22;37974;53.218;6.640;2023-04-09T03:40:16;7.80;99.90
51950;DHT22;37974;53.218;6.640;2023-04-09T03:42:42;7.70;99.90
51950;DHT22;37974;53.218;6.640;2023-04-09T03:45:08;7.70;99.90
51950;DHT22;37974;53.218;6.640;2023-04-09T03:47:34;7.70;99.90
51950;DHT22;37974;53.218;6.640;2023-04-09T03:50:00;7.70;99.90
51950;DHT22;37974;53.218;6.640;2023-04-09T03:52:25;7.70;99.90
51950;DHT22;37974;53.218;6.640;2023-04-09T03:54:51;8.00;99.90
51950;DHT22;37974;53.218;6.640;2023-04-09T03:57:17;7.60;99.90
51950;DHT22;37974;53.218;6.640;2023-04-09T03:59:42;7.60;99.90
51950;DHT22;37974;53.218;6.640;2023-04-09T04:02:08;7.60;99.90
51950;DHT22;37974;53.218;6.640;2023-04-09T04:04:34;7.60;99.90
51950;DHT22;37974;53.218;6.640;2023-04-09T04:07:01;7.50;99.90
51950;DHT22;37974;53.218;6.640;2023-04-09T04:09:26;7.70;99.90
51950;DHT22;37974;53.218;6.640;2023-04-09T04:11:52;7.60;99.90
51950;DHT22;37974;53.218;6.640;2023-04-09T04:14:18;7.50;99.90
51950;DHT22;37974;53.218;6.640;2023-04-09T04:16:44;7.70;99.90
51950;DHT22;37974;53.218;6.640;2023-04-09T04:19:09;7.70;99.90
51950;DHT22;37974;53.218;6.640;2023-04-09T04:21:35;7.50;99.90
51950;DHT22;37974;53.218;6.640;2023-04-09T04:24:01;7.50;99.90
51950;DHT22;37974;53.218;6.640;2023-04-09T04:26:26;7.90;99.90
51950;DHT22;37974;53.218;6.640;2023-04-09T04:28:52;7.40;99.90
51950;DHT22;37974;53.218;6.640;2023-04-09T04:31:18;7.50;99.90
51950;DHT22;37974;53.218;6.640;2023-04-09T04:33:43;7.40;99.90
51950;DHT22;37974;53.218;6.640;2023-04-09T04:36:11;7.80;99.90
51950;DHT22;37974;53.218;6.640;2023-04-09T04:38:37;7.50;99.90
51950;DHT22;37974;53.218;6.640;2023-04-09T04:41:04;7.50;99.90
51950;DHT22;37974;53.218;6.640;2023-04-09T04:43:29;7.50;99.90
51950;DHT22;37974;53.218;6.640;2023-04-09T04:45:55;7.50;99.90
51950;DHT22;37974;53.218;6.640;2023-04-09T04:48:21;7.50;99.90
51950;DHT22;37974;53.218;6.640;2023-04-09T04:50:54;7.50;99.90
51950;DHT22;37974;53.218;6.640;2023-04-09T04:53:20;7.60;99.90
51950;DHT22;37974;53.218;6.640;2023-04-09T04:55:46;7.60;99.90
51950;DHT22;37974;53.218;6.640;2023-04-09T04:58:11;7.60;99.90
51950;DHT22;37974;53.218;6.640;2023-04-09T05:00:37;7.60;99.90
51950;DHT22;37974;53.218;6.640;2023-04-09T05:03:02;8.00;99.90
51950;DHT22;37974;53.218;6.640;2023-04-09T05:05:28;7.60;99.90
51950;DHT22;37974;53.218;6.640;2023-04-09T05:07:54;7.60;99.90
51950;DHT22;37974;53.218;6.640;2023-04-09T05:10:19;7.80;99.90
51950;DHT22;37974;53.218;6.640;2023-04-09T05:12:45;7.70;99.90
51950;DHT22;37974;53.218;6.640;2023-04-09T05:15:11;7.70;99.90
51950;DHT22;37974;53.218;6.640;2023-04-09T05:17:37;7.70;99.90
51950;DHT22;37974;53.218;6.640;2023-04-09T05:20:03;7.90;99.90
51950;DHT22;37974;53.218;6.640;2023-04-09T05:22:29;7.70;99.90
51950;DHT22;37974;53.218;6.640;2023-04-09T05:24:55;7.80;99.90
51950;DHT22;37974;53.218;6.640;2023-04-09T05:27:20;7.80;99.90
51950;DHT22;37974;53.218;6.640;2023-04-09T05:29:48;7.80;99.90
51950;DHT22;37974;53.218;6.640;2023-04-09T05:32:14;7.80;99.90
51950;DHT22;37974;53.218;6.640;2023-04-09T05:34:40;7.80;99.90
51950;DHT22;37974;53.218;6.640;2023-04-09T05:37:06;7.80;99.90
51950;DHT22;37974;53.218;6.640;2023-04-09T05:39:32;7.90;99.90
51950;DHT22;37974;53.218;6.640;2023-04-09T05:41:57;7.90;99.90
51950;DHT22;37974;53.218;6.640;2023-04-09T05:44:23;7.90;99.90
51950;DHT22;37974;53.218;6.640;2023-04-09T05:46:49;7.90;99.90
51950;DHT22;37974;53.218;6.640;2023-04-09T05:49:15;7.90;99.90
51950;DHT22;37974;53.218;6.640;2023-04-09T05:51:40;8.00;99.90
51950;DHT22;37974;53.218;6.640;2023-04-09T05:54:07;8.00;99.90
51950;DHT22;37974;53.218;6.640;2023-04-09T05:56:34;8.00;99.90
51950;DHT22;37974;53.218;6.640;2023-04-09T05:58:59;8.00;99.90
51950;DHT22;37974;53.218;6.640;2023-04-09T06:01:25;8.00;99.90
51950;DHT22;37974;53.218;6.640;2023-04-09T06:03:51;8.00;99.90
51950;DHT22;37974;53.218;6.640;2023-04-09T06:06:17;8.40;99.90
51950;DHT22;37974;53.218;6.640;2023-04-09T06:08:43;8.00;99.90
51950;DHT22;37974;53.218;6.640;2023-04-09T06:11:10;8.10;99.90
51950;DHT22;37974;53.218;6.640;2023-04-09T06:13:36;8.10;99.90
51950;DHT22;37974;53.218;6.640;2023-04-09T06:16:05;8.10;99.90
51950;DHT22;37974;53.218;6.640;2023-04-09T06:18:31;8.10;99.90
51950;DHT22;37974;53.218;6.640;2023-04-09T06:21:02;8.10;99.90
51950;DHT22;37974;53.218;6.640;2023-04-09T06:23:28;8.10;99.90
51950;DHT22;37974;53.218;6.640;2023-04-09T06:25:54;8.10;99.90
51950;DHT22;37974;53.218;6.640;2023-04-09T06:28:20;8.10;99.90
51950;DHT22;37974;53.218;6.640;2023-04-09T06:30:46;8.10;99.90
51950;DHT22;37974;53.218;6.640;2023-04-09T06:33:11;8.10;99.90
51950;DHT22;37974;53.218;6.640;2023-04-09T06:35:37;8.10;99.90
51950;DHT22;37974;53.218;6.640;2023-04-09T06:38:03;7.80;99.90
51950;DHT22;37974;53.218;6.640;2023-04-09T06:40:29;8.10;99.90
51950;DHT22;37974;53.218;6.640;2023-04-09T06:42:55;8.10;99.90
51950;DHT22;37974;53.218;6.640;2023-04-09T06:45:21;8.20;99.90
51950;DHT22;37974;53.218;6.640;2023-04-09T06:47:46;8.20;99.90
51950;DHT22;37974;53.218;6.640;2023-04-09T06:50:12;8.20;99.90
51950;DHT22;37974;53.218;6.640;2023-04-09T06:52:38;8.30;99.90
51950;DHT22;37974;53.218;6.640;2023-04-09T06:55:04;8.30;99.90
51950;DHT22;37974;53.218;6.640;2023-04-09T06:57:30;8.30;99.90
51950;DHT22;37974;53.218;6.640;2023-04-09T06:59:56;8.30;99.90
51950;DHT22;37974;53.218;6.640;2023-04-09T07:02:22;8.40;99.90
51950;DHT22;37974;53.218;6.640;2023-04-09T07:04:47;8.30;99.90
51950;DHT22;37974;53.218;6.640;2023-04-09T07:07:13;8.40;99.90
51950;DHT22;37974;53.218;6.640;2023-04-09T07:09:39;8.40;99.90
51950;DHT22;37974;53.218;6.640;2023-04-09T07:12:05;8.50;99.90
51950;DHT22;37974;53.218;6.640;2023-04-09T07:14:31;8.50;99.90
51950;DHT22;37974;53.218;6.640;2023-04-09T07:16:57;8.50;99.90
51950;DHT22;37974;53.218;6.640;2023-04-09T07:19:22;8.50;99.90
51950;DHT22;37974;53.218;6.640;2023-04-09T07:21:48;8.60;99.90
51950;DHT22;37974;53.218;6.640;2023-04-09T07:24:13;8.60;99.90
51950;DHT22;37974;53.218;6.640;2023-04-09T07:26:39;8.60;99.90
51950;DHT22;37974;53.218;6.640;2023-04-09T07:29:05;8.60;99.90
51950;DHT22;37974;53.218;6.640;2023-04-09T07:31:53;8.60;99.90
51950;DHT22;37974;53.218;6.640;2023-04-09T07:34:28;8.90;99.90
51950;DHT22;37974;53.218;6.640;2023-04-09T07:37:25;8.70;99.90
51950;DHT22;37974;53.218;6.640;2023-04-09T07:39:53;8.80;99.90
51950;DHT22;37974;53.218;6.640;2023-04-09T07:42:42;9.00;99.90
51950;DHT22;37974;53.218;6.640;2023-04-09T07:45:10;9.00;99.90
51950;DHT22;37974;53.218;6.640;2023-04-09T07:47:49;9.20;99.90
51950;DHT22;37974;53.218;6.640;2023-04-09T07:50:52;9.20;99.90
51950;DHT22;37974;53.218;6.640;2023-04-09T07:53:33;9.30;99.90
51950;DHT22;37974;53.218;6.640;2023-04-09T07:55:59;9.40;99.90
51950;DHT22;37974;53.218;6.640;2023-04-09T07:58:36;9.40;99.90
51950;DHT22;37974;53.218;6.640;2023-04-09T08:01:15;9.50;99.90
51950;DHT22;37974;53.218;6.640;2023-04-09T08:11:17;9.70;99.90
51950;DHT22;37974;53.218;6.640;2023-04-09T08:14:29;9.80;99.90
51950;DHT22;37974;53.218;6.640;2023-04-09T08:21:17;9.90;99.90
51950;DHT22;37974;53.218;6.640;2023-04-09T08:31:22;10.00;99.90
51950;DHT22;37974;53.218;6.640;2023-04-09T08:33:43;10.10;99.90
51950;DHT22;37974;53.218;6.640;2023-04-09T08:36:51;10.10;99.90
51950;DHT22;37974;53.218;6.640;2023-04-09T08:42:54;10.20;99.90
51950;DHT22;37974;53.218;6.640;2023-04-09T08:45:59;10.00;99.90
51950;DHT22;37974;53.218;6.640;2023-04-09T08:56:39;10.40;99.90
51950;DHT22;37974;53.218;6.640;2023-04-09T09:00:20;10.70;99.90
51950;DHT22;37974;53.218;6.640;2023-04-09T09:06:38;10.90;99.90
51950;DHT22;37974;53.218;6.640;2023-04-09T09:09:50;10.80;99.90
51950;DHT22;37974;53.218;6.640;2023-04-09T09:13:38;11.10;99.90
51950;DHT22;37974;53.218;6.640;2023-04-09T09:16:12;11.20;99.90
51950;DHT22;37974;53.218;6.640;2023-04-09T09:18:43;11.30;99.90
51950;DHT22;37974;53.218;6.640;2023-04-09T09:21:15;11.40;99.90
51950;DHT22;37974;53.218;6.640;2023-04-09T09:23:42;11.50;99.90
51950;DHT22;37974;53.218;6.640;2023-04-09T09:26:14;11.60;99.90
51950;DHT22;37974;53.218;6.640;2023-04-09T09:28:45;11.70;99.90
51950;DHT22;37974;53.218;6.640;2023-04-09T09:31:15;11.80;99.90
51950;DHT22;37974;53.218;6.640;2023-04-09T09:33:41;11.80;99.90
51950;DHT22;37974;53.218;6.640;2023-04-09T09:36:07;11.90;99.90
51950;DHT22;37974;53.218;6.640;2023-04-09T09:38:57;12.10;99.90
51950;DHT22;37974;53.218;6.640;2023-04-09T09:41:24;12.00;99.90
51950;DHT22;37974;53.218;6.640;2023-04-09T09:43:50;12.00;99.90
51950;DHT22;37974;53.218;6.640;2023-04-09T09:46:16;12.10;99.90
51950;DHT22;37974;53.218;6.640;2023-04-09T09:48:43;12.10;99.90
51950;DHT22;37974;53.218;6.640;2023-04-09T09:51:12;12.10;99.90
51950;DHT22;37974;53.218;6.640;2023-04-09T09:53:40;12.10;99.90
51950;DHT22;37974;53.218;6.640;2023-04-09T09:56:14;12.20;99.90
51950;DHT22;37974;53.218;6.640;2023-04-09T09:59:14;12.20;99.90
51950;DHT22;37974;53.218;6.640;2023-04-09T10:01:28;12.30;99.90
51950;DHT22;37974;53.218;6.640;2023-04-09T10:03:56;12.40;99.90
51950;DHT22;37974;53.218;6.640;2023-04-09T10:06:24;12.40;99.90
51950;DHT22;37974;53.218;6.640;2023-04-09T10:08:52;12.50;99.90
51950;DHT22;37974;53.218;6.640;2023-04-09T10:11:21;12.60;99.90
51950;DHT22;37974;53.218;6.640;2023-04-09T10:13:56;12.70;99.90
51950;DHT22;37974;53.218;6.640;2023-04-09T10:16:24;12.70;99.90
51950;DHT22;37974;53.218;6.640;2023-04-09T10:18:52;12.80;99.90
51950;DHT22;37974;53.218;6.640;2023-04-09T10:21:33;12.90;99.90
51950;DHT22;37974;53.218;6.640;2023-04-09T10:24:01;13.10;99.90
51950;DHT22;37974;53.218;6.640;2023-04-09T10:26:38;13.50;99.90
51950;DHT22;37974;53.218;6.640;2023-04-09T10:29:08;13.70;99.90
51950;DHT22;37974;53.218;6.640;2023-04-09T10:32:02;13.70;99.90
51950;DHT22;37974;53.218;6.640;2023-04-09T10:34:28;13.60;99.90
51950;DHT22;37974;53.218;6.640;2023-04-09T10:36:56;13.60;99.90
51950;DHT22;37974;53.218;6.640;2023-04-09T10:39:27;13.60;99.90
51950;DHT22;37974;53.218;6.640;2023-04-09T10:41:55;13.70;99.90
51950;DHT22;37974;53.218;6.640;2023-04-09T10:44:22;13.70;99.90
51950;DHT22;37974;53.218;6.640;2023-04-09T10:46:48;13.80;99.90
51950;DHT22;37974;53.218;6.640;2023-04-09T10:49:20;14.00;99.90
51950;DHT22;37974;53.218;6.640;2023-04-09T10:52:08;14.20;99.90
51950;DHT22;37974;53.218;6.640;2023-04-09T10:54:42;14.40;99.90
51950;DHT22;37974;53.218;6.640;2023-04-09T10:57:17;14.60;99.90
51950;DHT22;37974;53.218;6.640;2023-04-09T10:59:48;14.60;99.90
51950;DHT22;37974;53.218;6.640;2023-04-09T11:07:19;14.60;99.90
51950;DHT22;37974;53.218;6.640;2023-04-09T11:09:46;14.40;99.90
51950;DHT22;37974;53.218;6.640;2023-04-09T11:12:12;14.50;99.90
51950;DHT22;37974;53.218;6.640;2023-04-09T11:14:38;14.50;99.90
51950;DHT22;37974;53.218;6.640;2023-04-09T11:17:04;14.60;99.90
51950;DHT22;37974;53.218;6.640;2023-04-09T11:19:32;14.80;99.90
51950;DHT22;37974;53.218;6.640;2023-04-09T11:21:58;15.10;99.90
51950;DHT22;37974;53.218;6.640;2023-04-09T11:24:24;15.20;99.90
51950;DHT22;37974;53.218;6.640;2023-04-09T11:26:50;15.30;99.90
51950;DHT22;37974;53.218;6.640;2023-04-09T11:29:16;15.30;99.90
51950;DHT22;37974;53.218;6.640;2023-04-09T11:31:43;15.30;99.90
51950;DHT22;37974;53.218;6.640;2023-04-09T11:34:10;15.30;99.90
51950;DHT22;37974;53.218;6.640;2023-04-09T11:36:37;15.30;99.90
51950;DHT22;37974;53.218;6.640;2023-04-09T11:39:03;15.20;99.90
51950;DHT22;37974;53.218;6.640;2023-04-09T11:41:36;15.10;99.90
51950;DHT22;37974;53.218;6.640;2023-04-09T11:44:04;14.90;99.90
51950;DHT22;37974;53.218;6.640;2023-04-09T11:46:34;14.70;99.90
51950;DHT22;37974;53.218;6.640;2023-04-09T11:49:00;14.70;99.90
51950;DHT22;37974;53.218;6.640;2023-04-09T11:51:26;14.70;99.90
51950;DHT22;37974;53.218;6.640;2023-04-09T11:54:03;14.70;99.90
51950;DHT22;37974;53.218;6.640;2023-04-09T11:56:29;15.00;99.90
51950;DHT22;37974;53.218;6.640;2023-04-09T11:58:55;15.10;99.90
51950;DHT22;37974;53.218;6.640;2023-04-09T12:01:21;15.20;99.90
51950;DHT22;37974;53.218;6.640;2023-04-09T12:03:53;15.30;99.90
51950;DHT22;37974;53.218;6.640;2023-04-09T12:06:20;15.40;99.90
51950;DHT22;37974;53.218;6.640;2023-04-09T12:08:55;15.50;99.90
51950;DHT22;37974;53.218;6.640;2023-04-09T12:11:27;15.50;99.90
51950;DHT22;37974;53.218;6.640;2023-04-09T12:14:00;15.40;99.90
51950;DHT22;37974;53.218;6.640;2023-04-09T12:16:30;15.20;99.90
51950;DHT22;37974;53.218;6.640;2023-04-09T12:19:02;15.20;99.90
51950;DHT22;37974;53.218;6.640;2023-04-09T12:21:47;15.20;99.90
51950;DHT22;37974;53.218;6.640;2023-04-09T12:24:14;15.10;99.90
51950;DHT22;37974;53.218;6.640;2023-04-09T12:26:40;15.10;99.90
51950;DHT22;37974;53.218;6.640;2023-04-09T12:29:06;15.10;99.90
51950;DHT22;37974;53.218;6.640;2023-04-09T12:31:31;15.20;99.90
51950;DHT22;37974;53.218;6.640;2023-04-09T12:33:57;15.40;99.90
51950;DHT22;37974;53.218;6.640;2023-04-09T12:36:23;15.40;99.90
51950;DHT22;37974;53.218;6.640;2023-04-09T12:38:49;15.40;99.90
51950;DHT22;37974;53.218;6.640;2023-04-09T12:41:15;15.40;99.90
51950;DHT22;37974;53.218;6.640;2023-04-09T12:43:41;15.50;99.90
51950;DHT22;37974;53.218;6.640;2023-04-09T12:46:08;15.50;99.90
51950;DHT22;37974;53.218;6.640;2023-04-09T12:48:34;15.60;99.90
51950;DHT22;37974;53.218;6.640;2023-04-09T12:51:00;15.60;99.90
51950;DHT22;37974;53.218;6.640;2023-04-09T12:53:27;15.50;99.90
51950;DHT22;37974;53.218;6.640;2023-04-09T12:55:53;15.50;99.90
51950;DHT22;37974;53.218;6.640;2023-04-09T12:58:18;15.60;99.90
51950;DHT22;37974;53.218;6.640;2023-04-09T13:00:45;15.70;99.90
51950;DHT22;37974;53.218;6.640;2023-04-09T13:03:11;15.70;99.90
51950;DHT22;37974;53.218;6.640;2023-04-09T13:05:37;15.70;99.90
51950;DHT22;37974;53.218;6.640;2023-04-09T13:08:02;15.70;99.90
51950;DHT22;37974;53.218;6.640;2023-04-09T13:10:30;15.70;99.90
51950;DHT22;37974;53.218;6.640;2023-04-09T13:12:56;15.70;99.90
51950;DHT22;37974;53.218;6.640;2023-04-09T13:15:21;15.80;99.90
51950;DHT22;37974;53.218;6.640;2023-04-09T13:17:47;15.90;99.90
51950;DHT22;37974;53.218;6.640;2023-04-09T13:20:13;16.00;99.90
51950;DHT22;37974;53.218;6.640;2023-04-09T13:22:39;16.10;99.90
51950;DHT22;37974;53.218;6.640;2023-04-09T13:25:05;16.10;99.90
51950;DHT22;37974;53.218;6.640;2023-04-09T13:27:31;16.10;99.90
51950;DHT22;37974;53.218;6.640;2023-04-09T13:29:57;16.00;99.90
51950;DHT22;37974;53.218;6.640;2023-04-09T13:32:22;16.00;99.90
51950;DHT22;37974;53.218;6.640;2023-04-09T13:34:49;15.90;99.90
51950;DHT22;37974;53.218;6.640;2023-04-09T13:37:15;15.70;99.90
51950;DHT22;37974;53.218;6.640;2023-04-09T13:39:41;15.70;99.90
51950;DHT22;37974;53.218;6.640;2023-04-09T13:42:07;15.70;99.90
51950;DHT22;37974;53.218;6.640;2023-04-09T13:44:33;15.70;99.90
51950;DHT22;37974;53.218;6.640;2023-04-09T13:46:59;15.70;99.90
51950;DHT22;37974;53.218;6.640;2023-04-09T13:49:25;15.80;99.90
51950;DHT22;37974;53.218;6.640;2023-04-09T13:51:52;15.80;99.90
51950;DHT22;37974;53.218;6.640;2023-04-09T13:54:18;15.80;99.90
51950;DHT22;37974;53.218;6.640;2023-04-09T13:56:44;15.80;99.90
51950;DHT22;37974;53.218;6.640;2023-04-09T13:59:10;15.70;99.90
51950;DHT22;37974;53.218;6.640;2023-04-09T14:01:36;15.60;99.90
51950;DHT22;37974;53.218;6.640;2023-04-09T14:04:02;15.40;99.90
51950;DHT22;37974;53.218;6.640;2023-04-09T14:06:28;15.40;99.90
51950;DHT22;37974;53.218;6.640;2023-04-09T14:08:54;15.40;99.90
51950;DHT22;37974;53.218;6.640;2023-04-09T14:11:20;15.30;99.90
51950;DHT22;37974;53.218;6.640;2023-04-09T14:13:45;15.20;99.90
51950;DHT22;37974;53.218;6.640;2023-04-09T14:16:11;15.20;99.90
51950;DHT22;37974;53.218;6.640;2023-04-09T14:18:37;15.20;99.90
51950;DHT22;37974;53.218;6.640;2023-04-09T14:21:05;15.20;99.90
51950;DHT22;37974;53.218;6.640;2023-04-09T14:23:33;15.20;99.90
51950;DHT22;37974;53.218;6.640;2023-04-09T14:26:01;15.10;99.90
51950;DHT22;37974;53.218;6.640;2023-04-09T14:28:27;15.20;99.90
51950;DHT22;37974;53.218;6.640;2023-04-09T14:30:53;15.20;99.90
51950;DHT22;37974;53.218;6.640;2023-04-09T14:33:18;15.20;99.90
51950;DHT22;37974;53.218;6.640;2023-04-09T14:35:45;15.20;99.90
51950;DHT22;37974;53.218;6.640;2023-04-09T14:38:11;15.20;99.90
51950;DHT22;37974;53.218;6.640;2023-04-09T14:40:36;15.20;99.90
51950;DHT22;37974;53.218;6.640;2023-04-09T14:43:02;15.20;99.90
51950;DHT22;37974;53.218;6.640;2023-04-09T14:45:28;15.20;99.90
51950;DHT22;37974;53.218;6.640;2023-04-09T14:47:54;15.20;99.90
51950;DHT22;37974;53.218;6.640;2023-04-09T14:50:19;15.30;99.90
51950;DHT22;37974;53.218;6.640;2023-04-09T14:52:45;15.20;99.90
51950;DHT22;37974;53.218;6.640;2023-04-09T14:55:13;15.30;99.90
51950;DHT22;37974;53.218;6.640;2023-04-09T14:57:39;15.20;99.90
51950;DHT22;37974;53.218;6.640;2023-04-09T15:00:07;15.20;99.90
51950;DHT22;37974;53.218;6.640;2023-04-09T15:02:33;15.20;99.90
51950;DHT22;37974;53.218;6.640;2023-04-09T15:05:01;15.30;99.90
51950;DHT22;37974;53.218;6.640;2023-04-09T15:07:27;15.40;99.90
51950;DHT22;37974;53.218;6.640;2023-04-09T15:09:56;15.50;99.90
51950;DHT22;37974;53.218;6.640;2023-04-09T15:12:26;15.50;99.90
51950;DHT22;37974;53.218;6.640;2023-04-09T15:14:52;15.60;99.90
51950;DHT22;37974;53.218;6.640;2023-04-09T15:17:17;15.60;99.90
51950;DHT22;37974;53.218;6.640;2023-04-09T15:19:43;15.60;99.90
51950;DHT22;37974;53.218;6.640;2023-04-09T15:22:12;15.50;99.90
51950;DHT22;37974;53.218;6.640;2023-04-09T15:24:37;15.60;99.90
51950;DHT22;37974;53.218;6.640;2023-04-09T15:27:03;15.60;99.90
51950;DHT22;37974;53.218;6.640;2023-04-09T15:29:29;15.70;99.90
51950;DHT22;37974;53.218;6.640;2023-04-09T15:31:56;15.70;99.90
51950;DHT22;37974;53.218;6.640;2023-04-09T15:34:22;15.70;99.90
51950;DHT22;37974;53.218;6.640;2023-04-09T15:36:49;15.80;99.90
51950;DHT22;37974;53.218;6.640;2023-04-09T15:39:15;15.80;99.90
51950;DHT22;37974;53.218;6.640;2023-04-09T15:41:41;15.80;99.90
51950;DHT22;37974;53.218;6.640;2023-04-09T15:44:07;15.80;99.90
51950;DHT22;37974;53.218;6.640;2023-04-09T15:46:33;15.80;99.90
51950;DHT22;37974;53.218;6.640;2023-04-09T15:48:59;15.70;99.90
51950;DHT22;37974;53.218;6.640;2023-04-09T15:51:24;15.70;99.90
51950;DHT22;37974;53.218;6.640;2023-04-09T15:53:51;15.60;99.90
51950;DHT22;37974;53.218;6.640;2023-04-09T15:56:17;15.60;99.90
51950;DHT22;37974;53.218;6.640;2023-04-09T15:58:44;15.60;99.90
51950;DHT22;37974;53.218;6.640;2023-04-09T16:01:11;15.50;99.90
51950;DHT22;37974;53.218;6.640;2023-04-09T16:03:37;15.70;99.90
51950;DHT22;37974;53.218;6.640;2023-04-09T16:06:07;15.50;99.90
51950;DHT22;37974;53.218;6.640;2023-04-09T16:08:35;15.40;99.90
51950;DHT22;37974;53.218;6.640;2023-04-09T16:11:03;15.30;99.90
51950;DHT22;37974;53.218;6.640;2023-04-09T16:13:29;15.30;99.90
51950;DHT22;37974;53.218;6.640;2023-04-09T16:15:55;15.30;99.90
51950;DHT22;37974;53.218;6.640;2023-04-09T16:18:22;15.40;99.90
51950;DHT22;37974;53.218;6.640;2023-04-09T16:20:53;15.40;99.90
51950;DHT22;37974;53.218;6.640;2023-04-09T16:23:20;15.50;99.90
51950;DHT22;37974;53.218;6.640;2023-04-09T16:25:46;15.50;99.90
51950;DHT22;37974;53.218;6.640;2023-04-09T16:28:11;15.40;99.90